Aeroporto :
LOGIN :

Iscrizione | Disclaimer

   EN    FR    IT 

 










Sommario :    VFR   VFR Marginale   IFR   IFR Intensivo   IFR Molto Intensivo
Visibilità : 
Base nubi : 
>= 8 km
>= 3000ft
5 / 8 km
1000 / 3000 ft
1500m / 5 km
500 / 1000 ft
800 / 1500m
200 / 500 ft
< 800m
< 200 ft
Simboli :   Temporali  Nebbia  Neve Forte  Precipitazioni Forti  Vento > 20 kt
SIGMETs :   Varie  Temporali  Ghiacco  Turbolenza  Onda orograficha  Ceneri Vulcaniche







- Altitudine del aeroporto : 219 ft
- Codice IATA : DNR
- Carte del aeroporto


LFRD - Dinard

ULTIMO METAR :
  • 191530Z AUTO 17010KT CAVOK 10/06 Q1021 NOSIG

METARs OBSOLETI :
  • 191500Z AUTO 16010KT CAVOK 10/06 Q1021 NOSIG
  • 191430Z AUTO 15009KT 9999 FEW016 10/07 Q1021 NOSIG
  • 191400Z AUTO 15007KT 100V190 9999 SCT038 11/07 Q1021 NOSIG
  • 191330Z AUTO 19009KT 140V210 9999 FEW021 SCT033 BKN041 11/04 Q1021 NOSIG
  • 191300Z AUTO 18005KT 140V210 9999 SCT021 SCT035 10/06 Q1022 NOSIG

TAF TAF LFRD
Valido dal 19 a 12 ore il 20 a 12 ore UTC


191100Z 1912/2012 19008KT 9999 FEW020
BECMG 1921/1924 3000 BR
BECMG 2000/2003 1200 BR BKN002
PROB30
TEMPO 2003/2008 0400 FG VV///
BECMG 2009/2011 6000 NSW SCT005
ATIS : +33 2 99 16 81 50
Nessun NOTAM noto per questo aeroporto.
1 SIGMET conosciuto per la FIR Brest (LFRR) :
 
Turbolenza severa
LFRR SIGMET 4 VALID 191200/191600 LFPW
LFRR BREST FIR/UIR SEV TURB FCST SE OF LINE N4545 W00145 - N4400 W00345 FL180/300 STNR NC=



MetMap, La meteo Aeronautica in un colpo d'occhio ! - Copyright ORBIFLY Dicembre 2007 - Disclaimer

ORBIFLY MET'MAP TEAM :

Programmazione e sviluppo : Alexandra Zaïnal
Concezione e sviluppo : Baudouin d'Aumeries
Co-Programmazione e sviluppo : Marc-Olivier Méhu
Supporto tecnico e logistico : Manuel Goepfert
Aiuto per la traduzione : Arnaldo La Scala

Contatto : metmap@orbifly.com




FONTI E CREDITI :

   NOAA